createdAt,value
2023-11-14T00:01:13.913Z,14.69
2023-11-14T00:03:40.617Z,14.68
2023-11-14T00:06:07.447Z,14.67
2023-11-14T00:08:34.021Z,14.67
2023-11-14T00:11:00.733Z,14.67
2023-11-14T00:13:27.742Z,14.68
2023-11-14T00:15:54.485Z,14.70
2023-11-14T00:18:21.184Z,14.70
2023-11-14T00:20:47.858Z,14.72
2023-11-14T00:23:14.472Z,14.74
2023-11-14T00:25:41.101Z,14.75
2023-11-14T00:28:07.708Z,14.75
2023-11-14T00:30:34.317Z,14.75
2023-11-14T00:33:00.972Z,14.78
2023-11-14T00:35:27.622Z,14.78
2023-11-14T00:37:54.336Z,14.78
2023-11-14T00:40:20.974Z,14.77
2023-11-14T00:42:47.625Z,14.78
2023-11-14T00:45:14.251Z,14.78
2023-11-14T00:47:40.926Z,14.79
2023-11-14T00:50:08.822Z,14.78
2023-11-14T00:52:35.492Z,14.78
2023-11-14T00:55:02.093Z,14.78
2023-11-14T00:57:28.950Z,14.79
2023-11-14T00:59:55.589Z,14.81
2023-11-14T01:02:22.257Z,14.82
2023-11-14T01:04:48.997Z,14.82
2023-11-14T01:07:15.624Z,14.82
2023-11-14T01:09:42.195Z,14.82
2023-11-14T01:12:08.873Z,14.86
2023-11-14T01:14:35.449Z,14.85
2023-11-14T01:17:02.151Z,14.87
2023-11-14T01:19:28.895Z,14.87
2023-11-14T01:21:55.481Z,14.89
2023-11-14T01:24:22.064Z,14.91
2023-11-14T01:26:48.692Z,14.92
2023-11-14T01:29:15.242Z,14.92
2023-11-14T01:31:41.874Z,14.93
2023-11-14T01:34:08.565Z,14.93
2023-11-14T01:36:35.142Z,14.94
2023-11-14T01:39:01.726Z,14.92
2023-11-14T01:41:28.412Z,14.93
2023-11-14T01:43:55.098Z,14.91
2023-11-14T01:46:22.007Z,14.89
2023-11-14T01:48:51.025Z,14.92
2023-11-14T01:51:19.475Z,14.92
2023-11-14T01:53:49.705Z,14.92
2023-11-14T01:56:17.207Z,14.93
2023-11-14T01:58:44.454Z,14.91
2023-11-14T02:01:11.798Z,14.93
2023-11-14T02:03:38.521Z,14.92
2023-11-14T02:06:05.340Z,14.92
2023-11-14T02:08:32.502Z,14.93
2023-11-14T02:10:59.891Z,14.90
2023-11-14T02:13:26.756Z,14.91
2023-11-14T02:15:53.343Z,14.90
2023-11-14T02:18:20.990Z,14.89
2023-11-14T02:20:47.748Z,14.90
2023-11-14T02:23:17.406Z,14.91
2023-11-14T02:25:45.176Z,14.91
2023-11-14T02:28:12.137Z,14.90
2023-11-14T02:30:38.940Z,14.91
2023-11-14T02:33:06.519Z,14.93
2023-11-14T02:35:33.099Z,14.92
2023-11-14T02:37:59.945Z,14.94
2023-11-14T02:40:26.903Z,14.95
2023-11-14T02:42:53.552Z,14.95
2023-11-14T02:45:20.947Z,14.96
2023-11-14T02:47:48.117Z,14.97
2023-11-14T02:50:30.545Z,14.97
2023-11-14T02:52:57.250Z,15.00
2023-11-14T02:55:23.804Z,14.98
2023-11-14T02:57:50.381Z,15.02
2023-11-14T03:00:17.162Z,15.03
2023-11-14T03:02:44.670Z,15.05
2023-11-14T03:05:11.577Z,15.06
2023-11-14T03:07:38.210Z,15.06
2023-11-14T03:10:05.353Z,15.06
2023-11-14T03:12:32.038Z,15.05
2023-11-14T03:14:58.641Z,15.06
2023-11-14T03:17:25.571Z,15.06
2023-11-14T03:19:52.274Z,15.06
2023-11-14T03:22:18.904Z,15.07
2023-11-14T03:24:45.489Z,15.06
2023-11-14T03:27:12.103Z,15.07
2023-11-14T03:29:38.690Z,15.07
2023-11-14T03:32:05.707Z,15.09
2023-11-14T03:34:32.400Z,15.10
2023-11-14T03:36:59.066Z,15.08
2023-11-14T03:39:25.651Z,15.04
2023-11-14T03:41:52.229Z,15.10
2023-11-14T03:44:18.848Z,15.08
2023-11-14T03:46:45.510Z,15.09
2023-11-14T03:49:12.143Z,15.09
2023-11-14T03:51:38.754Z,15.06
2023-11-14T03:54:05.472Z,15.09
2023-11-14T03:56:32.033Z,15.09
2023-11-14T03:58:58.681Z,15.07
2023-11-14T04:01:25.320Z,15.09
2023-11-14T04:03:52.064Z,15.09
2023-11-14T04:06:18.817Z,15.08
2023-11-14T04:08:45.468Z,15.10
2023-11-14T04:11:12.104Z,15.10
2023-11-14T04:13:38.820Z,15.11
2023-11-14T04:16:09.547Z,15.12
2023-11-14T04:18:37.100Z,15.13
2023-11-14T04:21:04.141Z,15.12
2023-11-14T04:23:30.724Z,15.12
2023-11-14T04:25:57.467Z,15.13
2023-11-14T04:28:24.084Z,15.09
2023-11-14T04:30:50.607Z,15.09
2023-11-14T04:33:17.283Z,15.09
2023-11-14T04:35:43.940Z,15.07
2023-11-14T04:38:10.574Z,15.06
2023-11-14T04:40:37.279Z,15.05
2023-11-14T04:43:03.930Z,15.05
2023-11-14T04:45:30.710Z,15.04
2023-11-14T04:47:58.491Z,15.04
2023-11-14T04:50:25.166Z,15.05
2023-11-14T04:52:51.766Z,15.05
2023-11-14T04:55:18.400Z,15.04
2023-11-14T04:57:45.053Z,15.07
2023-11-14T05:00:11.931Z,15.07
2023-11-14T05:02:38.567Z,15.06
2023-11-14T05:05:05.755Z,15.08
2023-11-14T05:07:32.409Z,15.05
2023-11-14T05:09:59.447Z,15.06
2023-11-14T05:12:26.145Z,15.07
2023-11-14T05:14:52.742Z,15.07
2023-11-14T05:17:19.470Z,15.06
2023-11-14T05:19:48.651Z,15.04
2023-11-14T05:22:15.614Z,15.03
2023-11-14T05:24:42.205Z,15.03
2023-11-14T05:27:08.775Z,15.02
2023-11-14T05:29:37.636Z,15.01
2023-11-14T05:32:05.081Z,15.00
2023-11-14T05:34:31.765Z,14.98
2023-11-14T05:36:58.375Z,14.97
2023-11-14T05:39:24.995Z,14.94
2023-11-14T05:41:51.676Z,14.94
2023-11-14T05:44:18.259Z,14.91
2023-11-14T05:46:44.890Z,14.91
2023-11-14T05:49:12.321Z,14.89
2023-11-14T05:51:39.055Z,14.90
2023-11-14T05:54:06.252Z,14.89
2023-11-14T05:56:32.925Z,14.84
2023-11-14T05:58:59.540Z,14.87
2023-11-14T06:01:26.171Z,14.86
2023-11-14T06:03:52.904Z,14.86
2023-11-14T06:06:19.635Z,14.85
2023-11-14T06:08:46.218Z,14.85
2023-11-14T06:11:16.571Z,14.84
2023-11-14T06:13:45.084Z,14.84
2023-11-14T06:16:11.991Z,14.83
2023-11-14T06:18:38.643Z,14.81
2023-11-14T06:21:05.498Z,14.79
2023-11-14T06:23:32.100Z,14.77
2023-11-14T06:25:59.005Z,14.79
2023-11-14T06:28:25.622Z,14.78
2023-11-14T06:30:52.194Z,14.77
2023-11-14T06:33:18.783Z,14.76
2023-11-14T06:35:45.372Z,14.74
2023-11-14T06:38:11.966Z,14.72
2023-11-14T06:40:38.658Z,14.72
2023-11-14T06:43:05.309Z,14.67
2023-11-14T06:45:31.910Z,14.68
2023-11-14T06:47:58.789Z,14.67
2023-11-14T06:50:33.906Z,14.68
2023-11-14T06:53:08.790Z,14.66
2023-11-14T06:55:35.411Z,14.65
2023-11-14T06:58:02.093Z,14.64
2023-11-14T07:00:28.804Z,14.63
2023-11-14T07:02:55.507Z,14.62
2023-11-14T07:05:22.251Z,14.61
2023-11-14T07:07:48.995Z,14.60
2023-11-14T07:10:15.644Z,14.59
2023-11-14T07:12:42.238Z,14.54
2023-11-14T07:15:09.342Z,14.54
2023-11-14T07:17:36.120Z,14.50
2023-11-14T07:20:03.763Z,14.48
2023-11-14T07:22:30.582Z,14.46
2023-11-14T07:24:57.203Z,14.44
2023-11-14T07:27:23.853Z,14.40
2023-11-14T07:29:50.426Z,14.40
2023-11-14T07:32:17.121Z,14.40
2023-11-14T07:34:43.768Z,14.41
2023-11-14T07:37:10.365Z,14.38
2023-11-14T07:39:36.972Z,14.38
2023-11-14T07:42:03.796Z,14.39
2023-11-14T07:44:30.378Z,14.39
2023-11-14T07:47:07.802Z,14.38
2023-11-14T07:49:42.474Z,14.35
2023-11-14T07:52:09.089Z,14.37
2023-11-14T07:54:35.877Z,14.35
2023-11-14T07:57:02.513Z,14.33
2023-11-14T07:59:30.692Z,14.38
2023-11-14T08:01:57.608Z,14.39
2023-11-14T08:04:24.481Z,14.41
2023-11-14T08:06:51.572Z,14.43
2023-11-14T08:09:18.199Z,14.45
2023-11-14T08:11:44.810Z,14.45
2023-11-14T08:14:11.447Z,14.47
2023-11-14T08:16:38.081Z,14.49
2023-11-14T08:19:04.747Z,14.48
2023-11-14T08:21:31.350Z,14.51
2023-11-14T08:23:57.986Z,14.52
2023-11-14T08:26:24.689Z,14.54
2023-11-14T08:28:51.370Z,14.52
2023-11-14T08:31:18.169Z,14.56
2023-11-14T08:33:44.775Z,14.59
2023-11-14T08:36:11.464Z,14.62
2023-11-14T08:38:38.102Z,14.65
2023-11-14T08:41:05.257Z,14.66
2023-11-14T08:43:31.949Z,14.68
2023-11-14T08:45:58.627Z,14.72
2023-11-14T08:48:25.256Z,14.73
2023-11-14T08:50:54.718Z,14.72
2023-11-14T08:53:21.757Z,14.76
2023-11-14T08:55:48.509Z,14.77
2023-11-14T08:58:15.128Z,14.81
2023-11-14T09:00:41.718Z,14.79
2023-11-14T09:03:08.677Z,14.76
2023-11-14T09:05:35.875Z,14.50
2023-11-14T09:08:02.867Z,14.32
2023-11-14T09:10:29.434Z,14.33
2023-11-14T09:12:55.985Z,14.51
2023-11-14T09:15:22.606Z,14.67
2023-11-14T09:17:53.113Z,14.77
2023-11-14T09:20:22.193Z,14.82
2023-11-14T09:22:48.785Z,14.86
2023-11-14T09:25:15.831Z,14.90
2023-11-14T09:27:42.958Z,14.97
2023-11-14T09:30:10.072Z,15.00
2023-11-14T09:32:36.922Z,15.04
2023-11-14T09:35:03.988Z,15.08
2023-11-14T09:37:30.725Z,15.08
2023-11-14T09:39:57.318Z,15.12
2023-11-14T09:42:23.979Z,15.15
2023-11-14T09:44:50.823Z,15.16
2023-11-14T09:47:17.480Z,15.16
2023-11-14T09:49:44.348Z,15.14
2023-11-14T09:52:13.857Z,15.07
2023-11-14T09:54:43.396Z,15.06
2023-11-14T09:57:10.707Z,15.01
2023-11-14T09:59:39.106Z,15.00
2023-11-14T10:02:05.978Z,14.94
2023-11-14T10:04:32.646Z,14.93
2023-11-14T10:06:59.705Z,14.97
2023-11-14T10:09:27.001Z,14.99
2023-11-14T10:12:12.630Z,15.02
2023-11-14T10:14:43.948Z,15.06
2023-11-14T10:17:10.512Z,15.02
2023-11-14T10:19:37.101Z,15.05
2023-11-14T10:22:04.583Z,15.09
2023-11-14T10:24:31.257Z,15.13
2023-11-14T10:26:57.984Z,15.07
2023-11-14T10:29:24.732Z,15.05
2023-11-14T10:31:52.819Z,15.03
2023-11-14T10:34:25.700Z,15.02
2023-11-14T10:36:52.875Z,15.07
2023-11-14T10:39:19.473Z,15.13
2023-11-14T10:41:46.700Z,15.12
2023-11-14T10:44:14.293Z,15.14
2023-11-14T10:46:50.949Z,15.17
2023-11-14T10:49:17.973Z,15.16
2023-11-14T10:51:47.201Z,15.18
2023-11-14T10:54:14.537Z,15.17
2023-11-14T10:56:48.943Z,15.18
2023-11-14T10:59:19.519Z,15.23
2023-11-14T11:01:47.342Z,15.22
2023-11-14T11:04:15.895Z,15.10
2023-11-14T11:06:43.168Z,15.05
2023-11-14T11:09:09.725Z,15.07
2023-11-14T11:11:44.435Z,15.01
2023-11-14T11:14:14.344Z,14.98
2023-11-14T11:16:46.058Z,14.92
2023-11-14T11:19:25.354Z,14.88
2023-11-14T11:22:06.675Z,14.91
2023-11-14T11:24:41.084Z,14.98
2023-11-14T11:27:14.811Z,15.02
2023-11-14T11:29:59.801Z,15.11
2023-11-14T11:32:34.862Z,15.21
2023-11-14T11:35:34.014Z,15.32
2023-11-14T11:38:11.319Z,15.36
2023-11-14T11:41:09.553Z,15.31
2023-11-14T11:43:39.670Z,15.41
2023-11-14T11:46:35.312Z,15.44
2023-11-14T11:49:11.025Z,15.38
2023-11-14T11:51:45.160Z,15.39
2023-11-14T11:54:30.354Z,15.42
2023-11-14T11:57:05.773Z,15.39
2023-11-14T11:59:41.555Z,15.40
2023-11-14T12:02:12.519Z,15.45
2023-11-14T12:04:40.236Z,15.53
2023-11-14T12:07:07.554Z,15.50
2023-11-14T12:09:34.172Z,15.49
2023-11-14T12:12:01.218Z,15.51
2023-11-14T12:14:27.912Z,15.53
2023-11-14T12:16:54.593Z,15.55
2023-11-14T12:19:21.202Z,15.56
2023-11-14T12:21:47.853Z,15.60
2023-11-14T12:24:15.338Z,15.60
2023-11-14T12:26:42.107Z,15.48
2023-11-14T12:29:09.898Z,15.49
2023-11-14T12:31:36.801Z,15.54
2023-11-14T12:34:03.953Z,15.56
2023-11-14T12:36:30.607Z,15.55
2023-11-14T12:39:12.871Z,15.58
2023-11-14T12:41:48.613Z,15.55
2023-11-14T12:44:15.766Z,15.56
2023-11-14T12:46:42.975Z,15.51
2023-11-14T12:49:14.308Z,15.45
2023-11-14T12:51:48.748Z,15.38
2023-11-14T12:54:20.209Z,15.38
2023-11-14T12:56:47.425Z,15.42
2023-11-14T12:59:14.206Z,15.46
2023-11-14T13:01:42.578Z,15.53
2023-11-14T13:04:13.053Z,15.53
2023-11-14T13:06:42.274Z,15.53
2023-11-14T13:09:08.941Z,15.50
2023-11-14T13:11:36.151Z,15.48
2023-11-14T13:14:04.007Z,15.47
2023-11-14T13:16:30.831Z,15.40
2023-11-14T13:18:57.902Z,15.30
2023-11-14T13:21:24.893Z,15.25
2023-11-14T13:23:52.178Z,15.16
2023-11-14T13:26:18.925Z,15.09
2023-11-14T13:28:45.618Z,14.95
2023-11-14T13:31:12.170Z,14.72
2023-11-14T13:33:38.872Z,14.54
2023-11-14T13:36:05.988Z,14.40
2023-11-14T13:38:33.888Z,14.38
2023-11-14T13:41:01.252Z,14.53
2023-11-14T13:43:28.040Z,14.70
2023-11-14T13:45:54.814Z,14.87
2023-11-14T13:48:21.592Z,14.98
2023-11-14T13:50:48.867Z,15.08
2023-11-14T13:53:16.276Z,15.13
2023-11-14T13:55:42.862Z,15.22
2023-11-14T13:58:09.586Z,15.28
2023-11-14T14:00:36.262Z,15.30
2023-11-14T14:03:03.059Z,15.31
2023-11-14T14:05:29.843Z,15.30
2023-11-14T14:07:56.622Z,15.27
2023-11-14T14:10:23.323Z,15.25
2023-11-14T14:12:49.962Z,15.20
2023-11-14T14:15:16.621Z,15.17
2023-11-14T14:17:45.650Z,15.11
2023-11-14T14:20:12.854Z,15.03
2023-11-14T14:22:39.588Z,14.96
2023-11-14T14:25:10.335Z,14.99
2023-11-14T14:27:37.780Z,15.01
2023-11-14T14:30:05.521Z,15.05
2023-11-14T14:32:32.539Z,15.13
2023-11-14T14:34:59.751Z,15.21
2023-11-14T14:37:26.886Z,15.25
2023-11-14T14:39:55.601Z,15.29
2023-11-14T14:42:22.178Z,15.31
2023-11-14T14:44:48.801Z,15.32
2023-11-14T14:47:15.471Z,15.28
2023-11-14T14:49:42.893Z,15.31
2023-11-14T14:52:09.499Z,15.34
2023-11-14T14:54:39.316Z,15.32
2023-11-14T14:57:06.705Z,15.25
2023-11-14T14:59:33.388Z,15.23
2023-11-14T15:02:00.118Z,15.18
2023-11-14T15:04:27.377Z,15.18
2023-11-14T15:06:54.281Z,15.11
2023-11-14T15:09:20.825Z,15.04
2023-11-14T15:11:47.399Z,15.02
2023-11-14T15:14:14.124Z,15.01
2023-11-14T15:16:40.813Z,14.96
2023-11-14T15:19:07.613Z,14.95
2023-11-14T15:21:34.251Z,14.92
2023-11-14T15:24:00.867Z,14.91
2023-11-14T15:26:27.574Z,14.93
2023-11-14T15:28:54.235Z,14.93
2023-11-14T15:31:20.913Z,14.95
2023-11-14T15:33:47.640Z,14.91
2023-11-14T15:36:14.319Z,14.88
2023-11-14T15:38:40.921Z,14.79
2023-11-14T15:41:07.624Z,14.73
2023-11-14T15:43:34.304Z,14.70
2023-11-14T15:46:00.983Z,14.63
2023-11-14T15:48:27.622Z,14.57
2023-11-14T15:50:54.250Z,14.51
2023-11-14T15:53:20.832Z,14.49
2023-11-14T15:55:47.490Z,14.46
2023-11-14T15:58:14.120Z,14.40
2023-11-14T16:00:40.681Z,14.34
2023-11-14T16:03:07.312Z,14.32
2023-11-14T16:05:34.034Z,14.30
2023-11-14T16:08:00.953Z,14.29
2023-11-14T16:10:27.605Z,14.32
2023-11-14T16:12:54.225Z,14.30
2023-11-14T16:15:20.909Z,14.31
2023-11-14T16:17:47.760Z,14.31
2023-11-14T16:20:14.608Z,14.33
2023-11-14T16:22:41.252Z,14.33
2023-11-14T16:25:08.243Z,14.29
2023-11-14T16:27:34.859Z,14.25
2023-11-14T16:30:01.818Z,14.20
2023-11-14T16:32:28.557Z,14.13
2023-11-14T16:34:55.185Z,14.10
2023-11-14T16:37:21.787Z,14.03
2023-11-14T16:39:48.318Z,14.02
2023-11-14T16:42:14.935Z,13.98
2023-11-14T16:44:41.635Z,13.95
2023-11-14T16:47:08.364Z,13.88
2023-11-14T16:49:35.713Z,13.82
2023-11-14T16:52:02.373Z,13.74
2023-11-14T16:54:28.975Z,13.71
2023-11-14T16:56:55.525Z,13.66
2023-11-14T16:59:22.206Z,13.62
2023-11-14T17:01:48.801Z,13.57
2023-11-14T17:04:15.468Z,13.52
2023-11-14T17:06:42.111Z,13.49
2023-11-14T17:09:08.696Z,13.46
2023-11-14T17:11:35.310Z,13.45
2023-11-14T17:14:02.007Z,13.39
2023-11-14T17:16:30.140Z,13.38
2023-11-14T17:18:56.827Z,13.34
2023-11-14T17:21:24.158Z,13.32
2023-11-14T17:23:50.783Z,13.29
2023-11-14T17:26:19.402Z,13.24
2023-11-14T17:28:46.940Z,13.23
2023-11-14T17:31:13.524Z,13.18
2023-11-14T17:33:40.065Z,13.18
2023-11-14T17:36:07.310Z,13.17
2023-11-14T17:38:33.993Z,13.15
2023-11-14T17:41:00.630Z,13.13
2023-11-14T17:43:27.274Z,13.11
2023-11-14T17:45:53.870Z,13.10
2023-11-14T17:48:20.558Z,13.08
2023-11-14T17:50:47.692Z,13.04
2023-11-14T17:53:14.555Z,13.01
2023-11-14T17:55:41.237Z,12.99
2023-11-14T17:58:07.859Z,12.98
2023-11-14T18:00:34.617Z,12.93
2023-11-14T18:03:01.529Z,12.91
2023-11-14T18:05:29.510Z,12.90
2023-11-14T18:07:56.445Z,12.86
2023-11-14T18:10:23.207Z,12.82
2023-11-14T18:12:50.963Z,12.83
2023-11-14T18:15:18.016Z,12.82
2023-11-14T18:17:44.796Z,12.82
2023-11-14T18:20:14.125Z,12.81
2023-11-14T18:22:40.915Z,12.84
2023-11-14T18:25:08.024Z,12.89
2023-11-14T18:27:34.894Z,12.89
2023-11-14T18:30:01.682Z,12.88
2023-11-14T18:32:28.302Z,12.86
2023-11-14T18:34:54.984Z,12.81
2023-11-14T18:37:21.588Z,12.74
2023-11-14T18:39:48.205Z,12.68
2023-11-14T18:42:14.833Z,12.67
2023-11-14T18:44:50.741Z,12.64
2023-11-14T18:47:24.959Z,12.59
2023-11-14T18:49:51.841Z,12.58
2023-11-14T18:52:18.445Z,12.57
2023-11-14T18:54:45.002Z,12.52
2023-11-14T18:57:11.609Z,12.49
2023-11-14T18:59:38.223Z,12.48
2023-11-14T19:02:04.892Z,12.46
2023-11-14T19:04:31.602Z,12.43
2023-11-14T19:06:58.262Z,12.42
2023-11-14T19:09:25.731Z,12.38
2023-11-14T19:11:52.548Z,12.40
2023-11-14T19:14:19.162Z,12.38
2023-11-14T19:16:47.306Z,12.35
2023-11-14T19:19:14.078Z,12.33
2023-11-14T19:21:45.286Z,12.31
2023-11-14T19:24:13.340Z,12.31
2023-11-14T19:26:40.027Z,12.32
2023-11-14T19:29:06.658Z,12.34
2023-11-14T19:31:33.275Z,12.35
2023-11-14T19:33:59.885Z,12.38
2023-11-14T19:36:26.469Z,12.39
2023-11-14T19:38:53.062Z,12.43
2023-11-14T19:41:19.708Z,12.44
2023-11-14T19:43:46.901Z,12.45
2023-11-14T19:46:13.614Z,12.47
2023-11-14T19:48:40.216Z,12.48
2023-11-14T19:51:06.817Z,12.45
2023-11-14T19:53:33.560Z,12.47
2023-11-14T19:56:00.204Z,12.48
2023-11-14T19:58:26.847Z,12.47
2023-11-14T20:00:53.403Z,12.46
2023-11-14T20:03:20.202Z,12.45
2023-11-14T20:05:46.924Z,12.40
2023-11-14T20:08:13.599Z,12.39
2023-11-14T20:10:40.189Z,12.39
2023-11-14T20:13:06.809Z,12.36
2023-11-14T20:15:33.425Z,12.37
2023-11-14T20:18:00.146Z,12.37
2023-11-14T20:20:26.804Z,12.41
2023-11-14T20:22:53.479Z,12.41
2023-11-14T20:25:20.594Z,12.38
2023-11-14T20:27:47.179Z,12.40
2023-11-14T20:30:14.039Z,12.37
2023-11-14T20:32:40.698Z,12.38
2023-11-14T20:35:07.622Z,12.35
2023-11-14T20:37:34.244Z,12.37
2023-11-14T20:40:00.855Z,12.35
2023-11-14T20:42:27.443Z,12.34
2023-11-14T20:44:54.111Z,12.32
2023-11-14T20:47:20.869Z,12.35
2023-11-14T20:49:47.499Z,12.35
2023-11-14T20:52:14.399Z,12.35
2023-11-14T20:54:40.958Z,12.35
2023-11-14T20:57:07.609Z,12.37
2023-11-14T20:59:34.533Z,12.38
2023-11-14T21:02:01.343Z,12.39
2023-11-14T21:06:23.653Z,12.48
2023-11-14T21:08:50.411Z,12.51
2023-11-14T21:11:17.255Z,12.56
2023-11-14T21:13:44.046Z,12.62
2023-11-14T21:16:10.919Z,12.62
2023-11-14T21:18:37.972Z,12.63
2023-11-14T21:21:06.076Z,12.64
2023-11-14T21:23:32.728Z,12.61
2023-11-14T21:25:59.327Z,12.61
2023-11-14T21:28:25.963Z,12.59
2023-11-14T21:30:52.557Z,12.55
2023-11-14T21:33:19.342Z,12.55
2023-11-14T21:35:46.031Z,12.52
2023-11-14T21:38:12.648Z,12.48
2023-11-14T21:40:39.212Z,12.50
2023-11-14T21:43:05.813Z,12.46
2023-11-14T21:45:32.391Z,12.46
2023-11-14T21:47:59.064Z,12.46
2023-11-14T21:50:25.762Z,12.46
2023-11-14T21:52:52.342Z,12.46
2023-11-14T21:55:19.020Z,12.45
2023-11-14T21:57:45.581Z,12.45
2023-11-14T22:00:13.036Z,12.42
2023-11-14T22:02:39.780Z,12.41
2023-11-14T22:05:06.683Z,12.39
2023-11-14T22:07:33.319Z,12.41
2023-11-14T22:10:03.531Z,12.40
2023-11-14T22:12:31.329Z,12.39
2023-11-14T22:14:58.046Z,12.37
2023-11-14T22:17:24.870Z,12.39
2023-11-14T22:19:51.704Z,12.39
2023-11-14T22:22:18.317Z,12.38
2023-11-14T22:24:44.922Z,12.33
2023-11-14T22:27:11.549Z,12.36
2023-11-14T22:29:38.162Z,12.36
2023-11-14T22:32:05.020Z,12.34
2023-11-14T22:34:31.559Z,12.29
2023-11-14T22:36:58.454Z,12.29
2023-11-14T22:39:25.077Z,12.28
2023-11-14T22:41:51.675Z,12.29
2023-11-14T22:44:18.353Z,12.27
2023-11-14T22:46:45.350Z,12.25
2023-11-14T22:49:11.918Z,12.24
2023-11-14T22:51:38.795Z,12.27
2023-11-14T22:54:05.533Z,12.25
2023-11-14T22:56:32.461Z,12.23
2023-11-14T22:58:59.287Z,12.22
2023-11-14T23:01:26.017Z,12.20
2023-11-14T23:03:52.711Z,12.22
2023-11-14T23:06:19.362Z,12.26
2023-11-14T23:08:46.018Z,12.25
2023-11-14T23:11:12.761Z,12.22
2023-11-14T23:13:39.348Z,12.21
2023-11-14T23:16:06.512Z,12.19
2023-11-14T23:18:33.655Z,12.22
2023-11-14T23:21:00.419Z,12.19
2023-11-14T23:23:27.407Z,12.16
2023-11-14T23:25:53.984Z,12.17
2023-11-14T23:28:20.636Z,12.19
2023-11-14T23:30:47.253Z,12.18
2023-11-14T23:33:13.902Z,12.22
2023-11-14T23:35:40.680Z,12.26
2023-11-14T23:38:07.328Z,12.29
2023-11-14T23:40:33.923Z,12.25
2023-11-14T23:43:00.722Z,12.37
2023-11-14T23:45:27.323Z,12.38
2023-11-14T23:47:54.034Z,12.37
2023-11-14T23:50:20.782Z,12.34
2023-11-14T23:52:48.714Z,12.27
2023-11-14T23:55:15.792Z,12.27
2023-11-14T23:57:42.432Z,12.23
